createdAt,value
2017-12-25T06:49:52.510Z,6.47
2017-12-25T06:52:24.146Z,7.50
2017-12-25T06:54:55.435Z,6.30
2017-12-25T06:57:27.523Z,7.30
2017-12-25T06:59:58.370Z,6.87
2017-12-25T07:02:31.270Z,6.93
2017-12-25T07:05:03.531Z,8.30
2017-12-25T07:07:38.420Z,8.77
2017-12-25T07:10:17.024Z,8.63
2017-12-25T07:12:48.156Z,8.70
2017-12-25T08:06:06.327Z,11.40
2017-12-25T08:08:37.052Z,9.83
2017-12-25T08:14:22.239Z,10.90
2017-12-25T08:16:56.687Z,10.20
2017-12-25T08:19:29.897Z,9.43
2017-12-25T08:25:07.313Z,9.87
2017-12-25T08:30:17.709Z,12.10
2017-12-25T08:36:05.904Z,11.50
2017-12-25T08:38:40.200Z,11.40
2017-12-25T08:41:15.546Z,11.10
2017-12-25T08:43:55.035Z,10.87
2017-12-25T08:46:32.732Z,9.77
2017-12-25T08:49:04.502Z,10.30
2017-12-25T08:51:48.243Z,8.90
2017-12-25T08:54:53.038Z,7.17
2017-12-25T08:57:32.066Z,7.17
2017-12-25T09:00:12.587Z,7.00
2017-12-25T09:58:52.783Z,9.73
2017-12-25T10:01:27.663Z,5.50
2017-12-25T10:04:00.857Z,5.90
2017-12-25T10:06:33.402Z,5.43
2017-12-25T10:09:05.495Z,5.63
2017-12-25T10:11:42.074Z,6.43
2017-12-25T10:14:36.069Z,5.90
2017-12-25T10:17:12.236Z,5.67
2017-12-25T10:19:56.657Z,6.27
2017-12-25T10:22:30.465Z,8.30
2017-12-25T10:25:04.146Z,7.10
2017-12-25T10:30:35.216Z,6.70
2017-12-25T10:33:10.832Z,7.07
2017-12-25T10:35:42.618Z,7.17
2017-12-25T10:38:14.942Z,6.97
2017-12-25T10:40:51.573Z,7.83
2017-12-25T10:43:26.319Z,7.60
2017-12-25T10:45:59.647Z,8.43
2017-12-25T10:48:40.274Z,9.60
2017-12-25T10:51:12.832Z,9.60
2017-12-25T10:57:49.084Z,9.07
2017-12-25T11:08:27.209Z,7.67
2017-12-25T11:10:59.388Z,7.50
2017-12-25T11:13:32.001Z,7.90
2017-12-25T11:16:10.116Z,7.80
2017-12-25T11:18:42.875Z,8.23
2017-12-25T11:21:15.878Z,7.87
2017-12-25T11:23:48.382Z,8.40
2017-12-25T12:50:07.934Z,10.23
2017-12-25T12:55:23.783Z,9.73
2017-12-25T12:57:54.747Z,10.67
2017-12-25T13:00:26.074Z,11.00
2017-12-25T13:02:58.642Z,11.50
2017-12-25T13:05:32.474Z,10.67
2017-12-25T13:10:48.651Z,11.47
2017-12-25T13:13:18.552Z,11.57
2017-12-25T13:15:56.955Z,10.33
2017-12-25T13:18:32.382Z,10.60
2017-12-25T13:21:05.981Z,10.97
2017-12-25T13:23:41.889Z,10.90
2017-12-25T13:26:17.203Z,9.73
2017-12-25T13:28:49.268Z,11.00
2017-12-25T13:31:22.777Z,9.37
2017-12-25T13:33:55.568Z,10.00
2017-12-25T13:36:26.568Z,10.80
2017-12-25T13:39:12.734Z,10.37
2017-12-25T13:41:46.976Z,10.27
2017-12-25T13:44:18.122Z,9.83
2017-12-25T13:47:17.991Z,10.00
2017-12-25T13:49:49.329Z,10.87
2017-12-25T13:52:21.973Z,10.90
2017-12-25T13:54:55.375Z,10.40
2017-12-25T13:57:25.494Z,11.07
2017-12-25T13:59:55.937Z,10.90
2017-12-25T14:02:26.315Z,11.37
2017-12-25T14:05:02.289Z,10.73
2017-12-25T14:07:36.674Z,11.33
2017-12-25T14:14:52.707Z,10.43
2017-12-25T14:17:43.175Z,9.83
2017-12-25T14:20:16.779Z,10.03
2017-12-25T14:23:08.123Z,11.70
